Time;durP1;ratioP1;P1;durP2;ratioP2;P2;SDS_P1;SDS_P2;PMS_P1;PMS_P2;Temp;Humidity;BMP_temperature;BMP_pressure;BME280_temperature;BME280_humidity;BME280_pressure;Samples;Min_cycle;Max_cycle;Signal;HPM_P1;HPM_P2
2021/01/28 00:00:42;;;;;;;65.03;27.02;;;;;;;9.58;83.89;99823.91;4450447;32;20085;-77
2021/01/28 00:03:11;;;;;;;57.42;24.42;;;;;;;9.64;84.69;99816.47;4450748;32;20025;-76
2021/01/28 00:05:38;;;;;;;61.85;25.73;;;;;;;9.63;84.33;99802.87;4449172;32;20490;-76
2021/01/28 00:08:05;;;;;;;61.17;24.83;;;;;;;9.52;83.68;99805.28;4451412;32;20053;-76
2021/01/28 00:10:32;;;;;;;49.40;22.13;;;;;;;9.44;84.83;99785.09;4449522;32;20403;-76
2021/01/28 00:12:59;;;;;;;50.58;21.67;;;;;;;9.45;84.54;99783.06;4451328;32;20426;-74
2021/01/28 00:15:27;;;;;;;48.65;20.73;;;;;;;9.42;84.24;99778.38;4446220;32;20059;-74
2021/01/28 00:17:53;;;;;;;42.10;19.48;;;;;;;9.45;84.46;99775.41;4449678;32;20085;-75
2021/01/28 00:22:56;;;;;;;37.07;16.97;;;;;;;9.87;81.97;99762.66;3956197;32;15862636;-73
2021/01/28 00:25:23;;;;;;;37.08;16.75;;;;;;;9.87;81.97;99762.66;4435160;32;20477;-74
2021/01/28 00:27:50;;;;;;;33.17;15.95;;;;;;;9.33;83.15;99756.56;4435300;32;20029;-74
2021/01/28 00:30:20;;;;;;;39.97;15.95;;;;;;;9.41;83.38;99746.69;4426930;32;20043;-75
2021/01/28 00:33:07;;;;;;;28.85;14.13;;;;;;;9.06;84.73;99741.50;4426597;32;20375;-75
2021/01/28 00:38:12;;;;;;;41.17;16.58;;;;;;;9.43;85.22;99720.97;3960617;32;15723659;-75
2021/01/28 00:40:38;;;;;;;37.28;16.00;;;;;;;9.43;85.22;99720.97;4436901;32;20029;-75
2021/01/28 00:43:04;;;;;;;31.98;14.73;;;;;;;9.28;84.62;99706.63;4436254;32;20094;-75
2021/01/28 00:45:31;;;;;;;31.40;15.02;;;;;;;9.11;85.09;99696.81;4436487;32;20026;-75
2021/01/28 00:47:57;;;;;;;27.95;13.70;;;;;;;9.24;84.70;99679.94;4441612;32;20420;-75
2021/01/28 00:50:27;;;;;;;29.63;14.75;;;;;;;9.33;84.57;99665.97;4441283;32;20144;-76
2021/01/28 00:52:53;;;;;;;32.95;14.95;;;;;;;9.46;84.95;99663.88;4444002;32;20110;-76
2021/01/28 00:55:22;;;;;;;29.75;14.25;;;;;;;9.30;84.10;99659.22;4437056;32;20036;-76
2021/01/28 00:57:47;;;;;;;29.52;15.68;;;;;;;9.44;84.02;99658.72;4420540;32;20045;-75
2021/01/28 01:00:33;;;;;;;30.95;14.48;;;;;;;9.36;83.75;99657.41;4443125;32;20380;-79
2021/01/28 01:02:59;;;;;;;29.80;14.35;;;;;;;9.18;84.11;99651.63;4426212;32;20078;-77
2021/01/28 01:05:27;;;;;;;28.52;13.90;;;;;;;9.21;84.63;99638.75;4438437;32;20026;-78
2021/01/28 01:07:53;;;;;;;29.35;13.85;;;;;;;9.34;84.03;99631.81;4434876;32;20052;-76
2021/01/28 01:10:32;;;;;;;31.10;13.50;;;;;;;9.24;84.95;99630.16;4436159;32;20104;-75
2021/01/28 01:12:58;;;;;;;26.35;13.43;;;;;;;8.95;86.35;99615.59;4441023;32;20079;-75
2021/01/28 01:15:23;;;;;;;27.27;12.98;;;;;;;9.03;86.52;99622.53;4436527;32;20037;-75
2021/01/28 01:17:50;;;;;;;32.45;13.18;;;;;;;9.02;85.90;99615.34;4433432;32;20033;-75
2021/01/28 01:20:19;;;;;;;27.73;12.60;;;;;;;9.08;86.92;99619.13;4439150;32;20361;-75
2021/01/28 01:22:45;;;;;;;26.62;13.20;;;;;;;9.02;87.36;99614.56;4441276;32;20089;-74
2021/01/28 01:25:12;;;;;;;24.27;12.93;;;;;;;8.99;87.78;99602.22;4435490;32;20037;-74
2021/01/28 01:27:38;;;;;;;31.73;13.68;;;;;;;8.95;87.96;99601.56;4442431;32;20029;-75
2021/01/28 01:30:06;;;;;;;28.98;13.70;;;;;;;8.94;88.23;99588.78;4433117;32;20094;-76
2021/01/28 01:32:32;;;;;;;27.20;13.30;;;;;;;8.96;88.35;99593.94;4439301;32;20029;-78
2021/01/28 01:34:58;;;;;;;27.23;12.37;;;;;;;8.94;89.09;99579.59;4428253;32;20034;-77
2021/01/28 01:37:24;;;;;;;28.10;13.02;;;;;;;9.23;87.25;99575.28;4426504;32;20566;-76
2021/01/28 01:39:50;;;;;;;25.25;12.55;;;;;;;9.16;86.58;99567.13;4429002;32;20061;-75
2021/01/28 01:42:16;;;;;;;25.33;12.43;;;;;;;9.37;86.56;99565.53;4412962;32;20102;-76
2021/01/28 01:44:42;;;;;;;28.02;12.37;;;;;;;9.34;85.82;99569.28;4426972;32;20022;-75
2021/01/28 01:47:31;;;;;;;26.42;12.45;;;;;;;9.29;85.88;99565.03;4427976;32;20120;-75
2021/01/28 01:49:57;;;;;;;23.00;10.90;;;;;;;9.31;85.05;99562.56;4418810;32;20101;-75
2021/01/28 01:52:26;;;;;;;22.40;10.45;;;;;;;8.90;87.00;99554.44;4419473;32;20049;-75
2021/01/28 01:54:53;;;;;;;22.50;10.60;;;;;;;8.96;87.84;99563.09;4415862;32;20048;-76
2021/01/28 01:57:25;;;;;;;20.90;11.00;;;;;;;8.88;87.35;99556.16;4416430;32;20455;-75
2021/01/28 01:59:54;;;;;;;19.83;10.13;;;;;;;8.99;87.15;99556.56;4417407;32;20021;-77
2021/01/28 02:02:22;;;;;;;16.80;9.07;;;;;;;9.22;86.05;99565.31;4417423;32;20162;-74
2021/01/28 02:04:59;;;;;;;17.98;9.70;;;;;;;9.23;84.26;99547.22;4417081;32;20035;-76
2021/01/28 02:07:27;;;;;;;20.65;9.60;;;;;;;9.34;84.17;99544.78;4418110;32;20067;-75
2021/01/28 02:09:53;;;;;;;19.35;9.73;;;;;;;9.37;84.92;99537.47;4417884;32;20123;-74
2021/01/28 02:12:19;;;;;;;19.70;8.98;;;;;;;9.17;85.18;99540.62;4418834;32;20044;-74
2021/01/28 02:14:47;;;;;;;20.30;8.30;;;;;;;8.98;86.24;99522.09;4413946;32;20052;-76
2021/01/28 02:17:18;;;;;;;18.20;9.13;;;;;;;8.98;87.57;99513.69;4417937;32;20045;-76
2021/01/28 02:25:27;;;;;;;17.25;8.15;;;;;;;9.95;84.79;99482.94;3988426;32;15024360;-75
2021/01/28 02:27:59;;;;;;;15.48;7.80;;;;;;;9.95;84.79;99482.94;4442414;32;20017;-76
2021/01/28 02:30:29;;;;;;;16.23;8.10;;;;;;;9.19;86.52;99472.81;4445698;32;20460;-74
2021/01/28 02:32:56;;;;;;;15.30;7.22;;;;;;;9.39;86.21;99462.00;4442092;32;20056;-75
2021/01/28 02:35:24;;;;;;;13.93;6.43;;;;;;;9.34;85.38;99454.97;4420688;32;20057;-75
2021/01/28 02:37:50;;;;;;;11.00;5.47;;;;;;;9.33;85.62;99447.75;4425528;32;20038;-76
2021/01/28 02:40:20;;;;;;;10.50;5.65;;;;;;;9.24;85.66;99436.50;4429603;32;20497;-76
2021/01/28 02:42:45;;;;;;;9.48;5.68;;;;;;;9.17;84.80;99438.78;4431002;32;20014;-75
2021/01/28 02:45:19;;;;;;;11.52;5.68;;;;;;;9.07;84.77;99429.56;4430707;32;20060;-75
2021/01/28 02:47:52;;;;;;;13.00;6.10;;;;;;;9.07;85.42;99415.53;4425894;32;20026;-75
2021/01/28 02:50:18;;;;;;;12.95;5.78;;;;;;;8.93;85.48;99413.25;4430176;32;20464;-76
2021/01/28 02:52:43;;;;;;;10.50;6.20;;;;;;;8.97;86.02;99397.09;4431261;32;20019;-76
2021/01/28 02:55:09;;;;;;;9.63;5.78;;;;;;;8.95;85.75;99393.97;4431336;32;20048;-75
2021/01/28 02:57:35;;;;;;;11.20;5.43;;;;;;;9.00;85.77;99381.34;4429462;32;20061;-76
2021/01/28 03:00:01;;;;;;;9.63;5.65;;;;;;;8.97;85.49;99369.03;4427750;32;20098;-77
2021/01/28 03:02:29;;;;;;;12.20;6.05;;;;;;;9.02;85.79;99365.59;4428016;32;20046;-75
2021/01/28 03:04:55;;;;;;;11.80;5.87;;;;;;;8.99;85.25;99366.53;4428440;32;20383;-76
2021/01/28 03:07:20;;;;;;;12.68;6.50;;;;;;;9.00;84.82;99356.09;4425877;32;20034;-77
2021/01/28 03:09:46;;;;;;;9.77;6.20;;;;;;;9.08;85.16;99349.75;4429702;32;20130;-76
2021/01/28 03:12:12;;;;;;;9.95;5.37;;;;;;;9.14;85.48;99345.09;4429086;32;20135;-75
2021/01/28 03:14:37;;;;;;;12.77;5.80;;;;;;;9.14;85.03;99322.63;4430270;32;20417;-75
2021/01/28 03:17:04;;;;;;;12.37;6.18;;;;;;;9.11;84.49;99314.37;4430840;32;20055;-75
2021/01/28 03:19:30;;;;;;;9.68;6.07;;;;;;;9.13;83.88;99321.09;4423604;32;20017;-74
2021/01/28 03:21:56;;;;;;;12.48;6.40;;;;;;;9.09;83.88;99306.44;4429684;32;20087;-73
2021/01/28 03:24:21;;;;;;;15.00;6.50;;;;;;;9.17;84.32;99293.66;4427894;32;20103;-74
2021/01/28 03:26:47;;;;;;;12.35;6.10;;;;;;;9.18;84.50;99295.19;4430438;32;20136;-75
2021/01/28 03:29:13;;;;;;;14.27;5.28;;;;;;;9.17;84.41;99288.03;4427289;32;20165;-74
2021/01/28 03:31:40;;;;;;;11.45;5.97;;;;;;;9.14;84.44;99280.53;4428804;32;20370;-74
2021/01/28 03:34:06;;;;;;;12.70;6.80;;;;;;;9.23;84.15;99288.97;4427420;32;20320;-74
2021/01/28 03:36:32;;;;;;;11.68;5.87;;;;;;;9.24;84.10;99262.47;4414213;32;20331;-73
2021/01/28 03:38:57;;;;;;;14.63;5.90;;;;;;;9.12;83.43;99246.56;4419510;32;20107;-75
2021/01/28 03:41:23;;;;;;;12.50;5.45;;;;;;;9.01;84.27;99239.81;4419120;32;20402;-75
2021/01/28 03:43:49;;;;;;;11.43;5.30;;;;;;;8.99;85.11;99231.87;4418924;32;20073;-75
2021/01/28 03:46:15;;;;;;;9.02;5.00;;;;;;;9.01;85.50;99231.41;4417591;32;20407;-75
2021/01/28 03:48:41;;;;;;;10.45;5.55;;;;;;;9.08;85.77;99234.69;4420418;32;20446;-75
2021/01/28 03:51:08;;;;;;;13.05;5.78;;;;;;;9.12;86.69;99229.72;4420027;32;20126;-75
2021/01/28 03:53:34;;;;;;;10.40;4.68;;;;;;;8.95;86.12;99220.03;4416675;32;20070;-74
2021/01/28 03:55:59;;;;;;;10.35;5.30;;;;;;;9.00;86.66;99204.59;4420806;32;20093;-75
2021/01/28 03:58:28;;;;;;;12.52;5.43;;;;;;;8.93;85.94;99197.25;4414517;32;20092;-76
2021/01/28 04:00:54;;;;;;;13.50;6.82;;;;;;;9.03;86.32;99178.41;4417551;32;20021;-74
2021/01/28 04:03:20;;;;;;;11.00;6.20;;;;;;;9.12;86.28;99162.37;4419153;32;21104;-74
2021/01/28 04:05:45;;;;;;;12.98;5.18;;;;;;;9.17;86.26;99153.31;4417427;32;20139;-75
2021/01/28 04:08:11;;;;;;;11.05;4.85;;;;;;;9.17;85.80;99150.53;4418162;32;20085;-74
2021/01/28 04:10:38;;;;;;;10.18;4.43;;;;;;;9.21;86.31;99150.38;4418219;32;20070;-75
2021/01/28 04:13:05;;;;;;;9.80;4.07;;;;;;;9.21;85.89;99151.12;4417738;32;20314;-74
2021/01/28 04:15:32;;;;;;;7.10;3.70;;;;;;;8.88;87.12;99150.19;4415963;32;20033;-74
2021/01/28 04:17:58;;;;;;;8.32;4.15;;;;;;;8.84;87.44;99155.16;4414702;32;20160;-74
2021/01/28 04:20:29;;;;;;;8.68;3.47;;;;;;;8.78;87.87;99153.44;4419802;32;20053;-74
2021/01/28 04:22:56;;;;;;;5.82;3.58;;;;;;;8.86;87.21;99160.31;4416091;32;20146;-74
2021/01/28 04:25:22;;;;;;;7.20;3.92;;;;;;;8.78;87.43;99171.06;4419684;32;20100;-76
2021/01/28 04:27:48;;;;;;;12.30;3.97;;;;;;;8.78;87.41;99168.25;4415187;32;20117;-76
2021/01/28 04:30:19;;;;;;;8.05;4.30;;;;;;;8.76;87.67;99153.13;4418618;32;20011;-76
2021/01/28 04:32:45;;;;;;;6.80;3.70;;;;;;;8.85;87.83;99148.31;4414859;32;20042;-75
2021/01/28 04:35:11;;;;;;;9.35;3.47;;;;;;;8.79;87.48;99164.19;4414024;32;20135;-75
2021/01/28 04:37:38;;;;;;;7.90;3.10;;;;;;;8.83;87.48;99166.84;4414782;32;20101;-74
2021/01/28 04:40:06;;;;;;;10.63;2.72;;;;;;;8.81;87.48;99158.12;4419165;32;20069;-75
2021/01/28 04:42:45;;;;;;;5.87;2.85;;;;;;;8.73;87.86;99143.62;4417895;32;20128;-75
2021/01/28 04:45:13;;;;;;;7.65;3.40;;;;;;;8.88;88.94;99143.78;4415610;32;20105;-74
2021/01/28 04:47:50;;;;;;;6.20;3.05;;;;;;;8.91;90.29;99128.84;4418225;32;20105;-76
2021/01/28 04:50:23;;;;;;;6.55;2.80;;;;;;;9.05;90.45;99145.84;4413583;32;20030;-74
2021/01/28 04:52:51;;;;;;;6.35;2.70;;;;;;;9.08;90.02;99136.47;4419211;32;20082;-74
2021/01/28 04:55:24;;;;;;;6.45;2.70;;;;;;;8.95;88.90;99132.25;4415894;32;20139;-76
2021/01/28 04:57:50;;;;;;;4.97;2.40;;;;;;;9.04;89.50;99124.66;4417831;32;20091;-74
2021/01/28 05:00:16;;;;;;;3.55;2.30;;;;;;;9.08;89.47;99108.41;4416286;32;20038;-75
2021/01/28 05:02:42;;;;;;;4.40;2.20;;;;;;;9.13;88.85;99107.81;4418007;32;20083;-74
2021/01/28 05:05:09;;;;;;;6.45;2.12;;;;;;;9.18;88.42;99098.75;4418750;32;20405;-75
2021/01/28 05:07:36;;;;;;;4.43;2.53;;;;;;;9.25;88.23;99104.06;4416798;32;20022;-75
2021/01/28 05:12:41;;;;;;;8.80;2.28;;;;;;;9.67;85.96;99090.12;3993396;32;15027279;-76
2021/01/28 05:15:27;;;;;;;5.90;2.90;;;;;;;9.67;85.96;99090.12;4440483;32;20072;-75
2021/01/28 05:17:58;;;;;;;7.68;2.67;;;;;;;9.25;87.01;99080.81;4438737;32;20022;-76
2021/01/28 05:20:25;;;;;;;5.32;2.55;;;;;;;9.26;87.86;99074.75;4442471;32;20072;-75
2021/01/28 05:23:04;;;;;;;4.37;2.42;;;;;;;9.29;87.86;99061.78;4441846;32;20091;-74
2021/01/28 05:25:35;;;;;;;8.23;2.92;;;;;;;9.33;87.47;99059.62;4440831;32;20121;-74
2021/01/28 05:28:17;;;;;;;4.60;2.92;;;;;;;9.35;87.23;99049.47;4440340;32;20063;-74
2021/01/28 05:30:45;;;;;;;4.87;2.60;;;;;;;9.40;86.41;99046.03;4438146;32;20025;-74
2021/01/28 05:36:22;;;;;;;3.45;2.70;;;;;;;9.47;85.98;99047.72;3991063;32;15026172;-74
2021/01/28 05:44:26;;;;;;;7.55;2.87;;;;;;;9.93;84.33;99007.78;3988788;32;15023174;-75
2021/01/28 05:47:03;;;;;;;5.15;2.87;;;;;;;9.93;84.33;99007.78;4434506;32;20406;-75
2021/01/28 05:49:30;;;;;;;4.07;2.22;;;;;;;9.87;83.61;99006.84;4441305;32;20447;-75
2021/01/28 05:51:56;;;;;;;5.87;2.70;;;;;;;9.88;83.51;99002.78;4439479;32;20088;-75
2021/01/28 05:54:24;;;;;;;4.95;3.00;;;;;;;9.79;83.12;99007.69;4441334;32;20359;-75
2021/01/28 06:02:40;;;;;;;4.93;2.77;;;;;;;10.08;82.22;99007.88;3994116;31;15015517;-75
2021/01/28 06:05:35;;;;;;;7.82;3.65;;;;;;;10.08;82.22;99007.88;4448822;32;20184;-75
2021/01/28 06:11:20;;;;;;;5.10;3.20;;;;;;;10.13;81.95;98982.69;3988411;32;15024241;-76
2021/01/28 06:16:36;;;;;;;4.68;2.87;;;;;;;9.72;82.96;98969.47;3990591;32;15032369;-74
2021/01/28 06:22:08;;;;;;;6.22;2.78;;;;;;;10.15;82.04;98990.66;3986442;32;15024523;-77
2021/01/28 06:25:03;;;;;;;4.43;2.30;;;;;;;10.15;82.04;98990.66;4445647;32;20059;-75
2021/01/28 06:33:27;;;;;;;15.85;5.40;;;;;;;9.65;84.37;99047.66;4008109;31;15014037;-74
2021/01/28 06:41:39;;;;;;;7.37;4.35;;;;;;;9.39;87.86;99044.47;3989821;32;15024691;-75
2021/01/28 06:55:23;;;;;;;13.57;4.37;;;;;;;9.75;85.42;99052.78;3979393;32;15024735;-74
2021/01/28 06:58:05;;;;;;;8.68;4.90;;;;;;;9.75;85.42;99052.78;4423339;32;20489;-75
2021/01/28 07:00:45;;;;;;;15.32;5.70;;;;;;;9.35;87.25;99040.25;4427686;32;20094;-76
2021/01/28 07:09:02;;;;;;;8.75;3.78;;;;;;;9.54;84.07;98996.84;3987096;32;15021776;-74
2021/01/28 07:14:07;;;;;;;10.93;4.12;;;;;;;9.67;84.98;98975.72;3988479;32;15023371;-75
2021/01/28 07:19:29;;;;;;;12.25;4.95;;;;;;;9.67;83.37;99009.44;4012921;31;15018811;-77
2021/01/28 07:21:57;;;;;;;9.30;4.00;;;;;;;9.67;83.37;99009.44;4471823;32;20040;-77
2021/01/28 07:29:54;;;;;;;11.32;5.53;;;;;;;9.50;84.18;99005.44;3986213;32;15023012;-77
2021/01/28 07:41:17;;;;;;;14.50;8.10;;;;;;;9.30;86.27;98996.75;3990141;32;15022672;-75
2021/01/28 07:43:46;;;;;;;15.52;8.07;;;;;;;9.30;86.27;98996.75;4443795;32;20060;-76
2021/01/28 07:49:09;;;;;;;17.60;8.52;;;;;;;9.35;85.86;98990.53;3960656;32;15723455;-74
2021/01/28 07:51:38;;;;;;;17.45;8.48;;;;;;;9.35;85.86;98990.53;4431161;32;20029;-74
2021/01/28 07:54:25;;;;;;;16.27;8.20;;;;;;;8.91;86.69;98986.56;4422104;32;20430;-75
2021/01/28 08:02:16;;;;;;;17.40;9.20;;;;;;;9.15;85.89;98973.44;3986603;32;15031066;-75
2021/01/28 08:04:47;;;;;;;;;;;;;;;8.94;85.78;98976.44;4439728;32;20037;-75
2021/01/28 08:07:20;;;;;;;12.57;7.72;;;;;;;8.85;85.10;98982.84;4438583;32;19929;-74
2021/01/28 08:09:48;;;;;;;16.42;8.50;;;;;;;8.88;86.11;98989.53;4440467;32;20033;-75
2021/01/28 08:12:21;;;;;;;16.58;8.73;;;;;;;8.86;86.18;98995.59;4437425;32;20061;-74
2021/01/28 08:14:50;;;;;;;14.85;7.50;;;;;;;8.89;85.75;98999.47;4438337;32;20025;-75
2021/01/28 08:17:22;;;;;;;18.62;8.70;;;;;;;8.68;84.93;99009.63;4433435;32;20068;-73
2021/01/28 08:19:48;;;;;;;16.50;8.55;;;;;;;8.57;85.54;99012.13;4437949;32;20389;-74
2021/01/28 08:22:17;;;;;;;15.15;8.27;;;;;;;8.62;85.87;99016.34;4436525;32;20034;-74
2021/01/28 08:24:58;;;;;;;18.75;8.63;;;;;;;8.66;86.09;99011.34;4433773;32;20070;-73
2021/01/28 08:27:34;;;;;;;14.20;8.50;;;;;;;8.81;86.06;99006.69;4437516;32;20021;-75
2021/01/28 08:32:36;;;;;;;17.90;10.02;;;;;;;9.00;84.49;99025.84;3983635;32;15022178;-74
2021/01/28 08:35:10;;;;;;;19.27;9.32;;;;;;;9.00;84.49;99025.84;4413273;32;20435;-75
2021/01/28 08:37:36;;;;;;;17.92;9.52;;;;;;;8.65;85.70;99030.19;4418100;32;20100;-76
2021/01/28 08:40:06;;;;;;;22.23;9.35;;;;;;;8.69;86.25;99030.84;4417227;32;20445;-77
2021/01/28 08:42:31;;;;;;;16.35;8.55;;;;;;;8.79;86.16;99029.59;4413939;32;20046;-74
2021/01/28 08:47:58;;;;;;;18.05;7.82;;;;;;;9.46;84.73;99018.09;3980721;32;15022146;-75
2021/01/28 08:50:27;;;;;;;19.05;9.68;;;;;;;9.46;84.73;99018.09;4435615;32;20297;-73
2021/01/28 08:53:01;;;;;;;24.12;11.45;;;;;;;9.09;85.89;99016.63;4434460;32;20055;-77
2021/01/28 08:55:34;;;;;;;35.73;16.23;;;;;;;9.15;85.23;99018.34;4415551;32;20065;-76
2021/01/28 08:58:08;;;;;;;38.45;18.23;;;;;;;9.20;85.41;99022.50;4414591;32;20134;-76
2021/01/28 09:00:42;;;;;;;40.47;19.50;;;;;;;9.24;85.24;99029.53;4418550;32;20821;-75
2021/01/28 09:03:10;;;;;;;42.08;19.27;;;;;;;9.24;84.80;99023.16;4425722;32;20104;-75
2021/01/28 09:05:36;;;;;;;46.97;19.58;;;;;;;9.20;84.27;99037.31;4427770;32;20026;-76
2021/01/28 09:08:08;;;;;;;32.15;16.67;;;;;;;9.16;84.43;99035.94;4430562;32;20115;-76
2021/01/28 09:13:29;;;;;;;26.30;13.52;;;;;;;9.48;84.25;99046.50;3988681;32;15022361;-75
2021/01/28 09:18:51;;;;;;;24.15;13.32;;;;;;;9.19;84.91;99052.62;3980050;32;15022857;-77
2021/01/28 09:21:20;;;;;;;23.77;12.70;;;;;;;9.15;85.88;99049.19;4423676;32;20041;-75
2021/01/28 09:24:12;;;;;;;19.83;9.98;;;;;;;9.09;84.18;99062.31;4429849;32;20042;-76
2021/01/28 09:26:38;;;;;;;19.00;8.93;;;;;;;9.12;84.64;99058.56;4428674;32;20034;-75
2021/01/28 09:29:14;;;;;;;13.80;8.00;;;;;;;9.20;85.05;99071.00;4429409;32;20334;-75
2021/01/28 09:31:40;;;;;;;16.73;8.65;;;;;;;9.16;84.16;99064.00;4427419;32;20096;-76
2021/01/28 09:36:59;;;;;;;10.55;5.47;;;;;;;9.66;82.98;99074.50;4008188;31;15061256;-74
2021/01/28 09:39:32;;;;;;;8.30;4.62;;;;;;;9.66;82.98;99074.50;4466396;32;20068;-75
2021/01/28 09:42:17;;;;;;;12.37;6.43;;;;;;;9.16;83.93;99078.03;4468587;32;20096;-78
2021/01/28 09:44:49;;;;;;;13.45;6.18;;;;;;;9.26;84.87;99077.56;4466357;32;20660;-76
2021/01/28 09:50:02;;;;;;;12.15;6.28;;;;;;;9.69;83.61;99077.16;4007592;31;15015838;-76
2021/01/28 09:55:12;;;;;;;11.27;5.32;;;;;;;9.79;83.20;99091.97;3933598;32;15027413;-77
2021/01/28 09:57:39;;;;;;;9.85;5.05;;;;;;;9.79;83.20;99091.97;4385537;32;20080;-77
2021/01/28 10:00:10;;;;;;;10.10;5.57;;;;;;;9.29;83.35;99082.22;4379693;32;20100;-76
2021/01/28 10:05:16;;;;;;;11.45;6.10;;;;;;;9.83;83.49;99093.34;3982280;32;15023805;-76
2021/01/28 10:07:42;;;;;;;7.93;4.85;;;;;;;9.83;83.49;99093.34;4436125;32;20041;-74
2021/01/28 10:10:09;;;;;;;10.35;5.15;;;;;;;9.34;84.33;99084.41;4440058;32;20470;-80
2021/01/28 10:12:35;;;;;;;8.38;3.12;;;;;;;9.38;84.66;99079.41;4443217;32;20641;-78
2021/01/28 10:15:02;;;;;;;9.52;3.80;;;;;;;9.23;82.90;99086.13;4445010;32;20049;-79
2021/01/28 10:17:27;;;;;;;8.10;4.55;;;;;;;9.18;83.79;99081.91;4444354;32;20424;-79
2021/01/28 10:19:53;;;;;;;7.80;4.45;;;;;;;9.25;84.88;99090.03;4446831;32;20080;-80
2021/01/28 10:22:21;;;;;;;11.05;4.32;;;;;;;9.28;84.36;99091.91;4441549;32;20122;-80
2021/01/28 10:24:46;;;;;;;8.95;3.97;;;;;;;9.30;84.89;99092.19;4424463;32;20033;-76
2021/01/28 10:27:12;;;;;;;6.97;4.00;;;;;;;9.31;84.03;99098.59;4434986;32;20354;-77
2021/01/28 10:29:41;;;;;;;9.23;4.22;;;;;;;9.44;84.46;99099.97;4442776;32;20085;-78
2021/01/28 10:32:09;;;;;;;8.57;4.10;;;;;;;9.52;84.50;99095.63;4440960;32;20092;-78
2021/01/28 10:34:36;;;;;;;9.32;4.60;;;;;;;9.65;84.93;99092.59;4432796;32;20551;-80
2021/01/28 10:37:03;;;;;;;9.52;5.15;;;;;;;9.75;84.93;99094.13;4412103;32;20661;-78
2021/01/28 10:39:29;;;;;;;9.20;5.50;;;;;;;9.82;84.26;99108.63;4418305;32;20458;-78
2021/01/28 10:41:55;;;;;;;13.95;5.10;;;;;;;9.76;83.35;99101.31;4431949;32;20116;-75
2021/01/28 10:44:21;;;;;;;12.82;6.70;;;;;;;9.76;83.76;99096.47;4434521;32;20041;-81
2021/01/28 10:46:48;;;;;;;10.32;5.65;;;;;;;9.81;84.12;99097.84;4423248;32;20898;-80
2021/01/28 10:49:14;;;;;;;8.82;4.70;;;;;;;9.82;83.44;99105.06;4440441;32;20077;-80
2021/01/28 10:51:41;;;;;;;5.18;3.45;;;;;;;9.88;83.57;99100.34;4431332;32;20071;-77
2021/01/28 10:54:07;;;;;;;8.02;3.60;;;;;;;9.87;82.89;99099.56;4433001;32;20060;-76
2021/01/28 10:56:33;;;;;;;7.45;3.80;;;;;;;9.73;82.93;99102.28;4433744;32;20071;-76
2021/01/28 10:58:59;;;;;;;6.87;3.90;;;;;;;9.80;83.61;99091.47;4430800;32;20042;-79
2021/01/28 11:01:25;;;;;;;13.18;5.50;;;;;;;9.92;84.11;99096.09;4430787;32;20175;-77
2021/01/28 11:03:51;;;;;;;22.62;11.27;;;;;;;9.89;83.84;99096.28;4426081;32;20434;-77
2021/01/28 11:06:17;;;;;;;11.40;7.70;;;;;;;9.84;83.30;99106.12;4433684;32;20597;-77
2021/01/28 11:08:43;;;;;;;15.23;11.20;;;;;;;9.87;82.81;99107.22;4426549;32;20058;-77
2021/01/28 11:11:09;;;;;;;22.00;16.40;;;;;;;9.95;83.84;99109.19;4426378;32;20100;-77
2021/01/28 11:13:34;;;;;;;21.52;12.80;;;;;;;10.03;83.47;99107.63;4433448;32;20049;-77
2021/01/28 11:16:00;;;;;;;24.50;11.27;;;;;;;9.97;83.44;99109.53;4425030;32;20082;-77
2021/01/28 11:18:26;;;;;;;24.27;11.93;;;;;;;9.77;81.09;99109.28;4418240;32;20034;-78
2021/01/28 11:20:51;;;;;;;12.90;6.78;;;;;;;9.68;82.04;99109.31;4417900;32;20097;-79
2021/01/28 11:23:17;;;;;;;13.23;5.97;;;;;;;9.72;83.97;99095.88;4417263;32;20037;-78
2021/01/28 11:25:43;;;;;;;17.92;8.77;;;;;;;9.76;83.83;99104.13;4420309;32;20075;-77
2021/01/28 11:28:09;;;;;;;20.67;9.65;;;;;;;9.88;84.02;99103.16;4415338;32;20081;-76
2021/01/28 11:30:35;;;;;;;13.73;7.22;;;;;;;9.96;84.41;99102.34;4411495;32;20046;-77
2021/01/28 11:33:04;;;;;;;14.40;7.78;;;;;;;10.16;84.41;99103.84;4422157;32;20058;-74
2021/01/28 11:35:32;;;;;;;19.50;9.88;;;;;;;10.25;83.27;99098.19;4411125;32;20102;-77
2021/01/28 11:38:03;;;;;;;12.52;5.62;;;;;;;10.30;83.72;99097.53;4420882;32;20438;-75
2021/01/28 11:40:30;;;;;;;9.13;5.90;;;;;;;10.29;82.93;99104.41;4419854;32;20081;-76
2021/01/28 11:42:56;;;;;;;4.75;2.92;;;;;;;10.28;83.16;99112.06;4424633;32;20107;-75
2021/01/28 11:45:26;;;;;;;6.30;2.92;;;;;;;10.08;80.34;99103.41;4423100;32;20346;-74
2021/01/28 11:47:52;;;;;;;7.32;3.62;;;;;;;9.69;81.65;99094.00;4424783;32;20058;-76
2021/01/28 11:50:19;;;;;;;4.28;3.00;;;;;;;9.83;82.76;99103.78;4424721;32;20079;-75
2021/01/28 11:52:45;;;;;;;8.57;3.50;;;;;;;9.53;82.67;99108.41;4424593;32;20050;-76
2021/01/28 11:55:14;;;;;;;7.05;3.58;;;;;;;9.52;83.69;99101.22;4424012;32;20040;-78
2021/01/28 11:57:40;;;;;;;7.95;4.25;;;;;;;9.47;85.12;99093.44;4410273;32;20136;-76
2021/01/28 12:00:09;;;;;;;5.78;3.15;;;;;;;9.64;85.01;99097.44;4426639;32;20458;-77
2021/01/28 12:02:34;;;;;;;5.50;2.85;;;;;;;9.72;84.14;99098.69;4423723;32;20569;-78
2021/01/28 12:05:00;;;;;;;4.60;2.45;;;;;;;9.71;84.08;99099.94;4421593;32;20029;-77
2021/01/28 12:07:26;;;;;;;6.03;3.08;;;;;;;9.67;83.12;99106.97;4428333;32;20089;-76
2021/01/28 12:09:52;;;;;;;7.37;3.17;;;;;;;9.60;83.52;99107.28;4425790;32;20095;-76
2021/01/28 12:12:17;;;;;;;7.22;3.37;;;;;;;9.69;83.81;99096.03;4417161;32;20410;-75
2021/01/28 12:14:43;;;;;;;9.18;3.83;;;;;;;9.62;84.32;99101.97;4424155;32;20057;-77
2021/01/28 12:17:08;;;;;;;7.45;4.40;;;;;;;9.69;84.62;99113.66;4428732;32;20053;-76
2021/01/28 12:19:34;;;;;;;6.35;4.03;;;;;;;9.66;84.99;99117.41;4421816;32;20416;-75
2021/01/28 12:22:01;;;;;;;4.55;3.28;;;;;;;9.74;84.90;99124.28;4420473;32;20041;-76
2021/01/28 12:24:28;;;;;;;7.45;3.95;;;;;;;9.84;84.00;99128.59;4422206;32;20426;-76
2021/01/28 12:26:56;;;;;;;8.32;4.22;;;;;;;9.75;83.07;99127.84;4418982;32;20421;-77
2021/01/28 12:29:22;;;;;;;7.45;4.03;;;;;;;9.94;84.16;99129.34;4426543;32;20034;-77
2021/01/28 12:31:48;;;;;;;6.40;3.37;;;;;;;10.02;82.94;99127.78;4421227;32;20089;-76
2021/01/28 12:34:14;;;;;;;8.07;4.37;;;;;;;10.05;81.79;99136.03;4421785;32;20022;-77
2021/01/28 12:36:39;;;;;;;7.53;5.50;;;;;;;10.03;82.74;99127.28;4426029;32;20068;-77
2021/01/28 12:39:05;;;;;;;11.25;4.37;;;;;;;10.04;83.26;99131.66;4416840;32;20425;-77
2021/01/28 12:41:31;;;;;;;11.00;5.32;;;;;;;10.23;80.35;99117.56;4420896;32;20091;-76
2021/01/28 12:43:57;;;;;;;9.48;4.85;;;;;;;10.04;82.74;99119.66;4423759;32;20040;-79
2021/01/28 12:46:22;;;;;;;8.43;5.53;;;;;;;10.06;83.27;99122.75;4419853;32;20060;-78
2021/01/28 12:48:48;;;;;;;15.93;5.50;;;;;;;10.09;83.15;99119.81;4423105;32;20054;-77
2021/01/28 12:51:14;;;;;;;8.98;4.78;;;;;;;10.13;82.18;99124.47;4426045;32;20093;-77
2021/01/28 12:53:40;;;;;;;8.43;4.62;;;;;;;10.06;81.46;99128.38;4424590;32;20049;-77
2021/01/28 12:56:05;;;;;;;9.73;4.62;;;;;;;9.95;81.51;99122.50;4424150;32;20085;-78
2021/01/28 12:58:31;;;;;;;6.40;4.70;;;;;;;9.93;81.96;99117.34;4423717;32;20026;-77
2021/01/28 13:00:57;;;;;;;7.40;4.70;;;;;;;9.96;83.53;99127.62;4421537;32;20393;-78
2021/01/28 13:03:22;;;;;;;9.38;4.95;;;;;;;9.96;82.95;99107.97;4420778;32;20049;-79
2021/01/28 13:05:48;;;;;;;6.22;4.12;;;;;;;10.19;83.80;99102.91;4418386;32;20052;-79
2021/01/28 13:08:14;;;;;;;6.15;4.05;;;;;;;10.19;82.93;99111.34;4422195;32;20068;-78
2021/01/28 13:10:40;;;;;;;6.97;4.00;;;;;;;10.07;81.49;99111.06;4411591;32;20399;-77
2021/01/28 13:13:06;;;;;;;8.85;4.82;;;;;;;10.20;82.85;99107.28;4408792;32;20841;-77
2021/01/28 13:15:33;;;;;;;8.27;4.82;;;;;;;10.22;82.55;99105.56;4416009;32;20100;-78
2021/01/28 13:17:59;;;;;;;8.20;4.70;;;;;;;10.13;81.36;99121.66;4417784;32;20042;-79
2021/01/28 13:20:28;;;;;;;10.02;5.72;;;;;;;10.18;82.67;99129.47;4417653;32;20058;-81
2021/01/28 13:22:54;;;;;;;9.75;5.80;;;;;;;10.20;83.11;99130.53;4415110;32;20082;-78
2021/01/28 13:25:20;;;;;;;10.15;6.10;;;;;;;10.20;82.72;99129.75;4422346;32;20389;-77
2021/01/28 13:27:45;;;;;;;8.77;6.20;;;;;;;10.26;83.07;99128.66;4421893;32;20101;-77
2021/01/28 13:30:13;;;;;;;13.98;6.07;;;;;;;10.32;83.13;99109.09;4421895;32;20046;-74
2021/01/28 13:32:41;;;;;;;12.27;6.18;;;;;;;10.24;83.04;99110.72;4421276;32;20082;-76